JST809 YBCS-YBSU
Flight info
| Callsign | JST809 |
|---|---|
| Flight time | N/A |
| Altitude | 37000 |
| Route | AKROM Y177 RUROX/N0358F190 W727 SUSGI W534 SEBVA |
| Aircraft | A320/M-SDE3FGHIRWY/LB1 |
Departure
| Time | N/A |
|---|---|
| Airport | Cairns International Airport (YBCS) |
Arrival
| Time | 2026-04-28 08:19 |
|---|---|
| Airport | Sunshine Coast Airport (YBSU) |
| Time | Latitude | Longitude | Altitude | Speed | Heading |
|---|---|---|---|---|---|
| 2026-04-28 07:51 | -25.19199 | 151.26612 | 37215 ft | 479 kts | 141° |
| 2026-04-28 07:51 | -25.24091 | 151.31614 | 37217 ft | 479 kts | 142° |
| 2026-04-28 07:52 | -25.29033 | 151.36543 | 37175 ft | 479 kts | 142° |
| 2026-04-28 07:52 | -25.31524 | 151.39022 | 36270 ft | 487 kts | 142° |
| 2026-04-28 07:52 | -25.34055 | 151.41549 | 35466 ft | 492 kts | 142° |
| 2026-04-28 07:53 | -25.36601 | 151.44110 | 34605 ft | 498 kts | 141° |
| 2026-04-28 07:53 | -25.39165 | 151.46702 | 33925 ft | 498 kts | 141° |
| 2026-04-28 07:53 | -25.41702 | 151.49282 | 33365 ft | 494 kts | 141° |
| 2026-04-28 07:53 | -25.44211 | 151.51834 | 32951 ft | 486 kts | 140° |
| 2026-04-28 07:54 | -25.46683 | 151.54346 | 32457 ft | 480 kts | 140° |
| 2026-04-28 07:54 | -25.49135 | 151.56833 | 31949 ft | 475 kts | 140° |
| 2026-04-28 07:54 | -25.51556 | 151.59288 | 31473 ft | 469 kts | 140° |
| 2026-04-28 07:54 | -25.53948 | 151.61712 | 31010 ft | 464 kts | 140° |
| 2026-04-28 07:55 | -25.56312 | 151.64102 | 30545 ft | 458 kts | 140° |
| 2026-04-28 07:55 | -25.58651 | 151.66473 | 30041 ft | 453 kts | 138° |
| 2026-04-28 07:55 | -25.60750 | 151.69050 | 29463 ft | 449 kts | 130° |
| 2026-04-28 07:55 | -25.62671 | 151.71736 | 28497 ft | 441 kts | 130° |
| 2026-04-28 07:56 | -25.64553 | 151.74365 | 27887 ft | 426 kts | 130° |
| 2026-04-28 07:56 | -25.66355 | 151.76887 | 27446 ft | 410 kts | 130° |
| 2026-04-28 07:56 | -25.68072 | 151.79286 | 27017 ft | 396 kts | 130° |
| 2026-04-28 07:56 | -25.69758 | 151.81635 | 26595 ft | 383 kts | 130° |
| 2026-04-28 07:57 | -25.71384 | 151.83906 | 26191 ft | 371 kts | 130° |
| 2026-04-28 07:57 | -25.72991 | 151.86149 | 25791 ft | 372 kts | 130° |
| 2026-04-28 07:57 | -25.74605 | 151.88402 | 25396 ft | 372 kts | 130° |
| 2026-04-28 07:57 | -25.76214 | 151.90648 | 24989 ft | 371 kts | 130° |
| 2026-04-28 07:58 | -25.77815 | 151.92887 | 24578 ft | 370 kts | 130° |
| 2026-04-28 07:58 | -25.79412 | 151.95124 | 24161 ft | 370 kts | 130° |
| 2026-04-28 07:58 | -25.81009 | 151.97361 | 23728 ft | 370 kts | 130° |
| 2026-04-28 07:58 | -25.82609 | 151.99594 | 23254 ft | 368 kts | 130° |
| 2026-04-28 07:59 | -25.84196 | 152.01815 | 22816 ft | 366 kts | 130° |
| 2026-04-28 07:59 | -25.85771 | 152.04026 | 22379 ft | 364 kts | 129° |
| 2026-04-28 07:59 | -25.87338 | 152.06233 | 21930 ft | 363 kts | 129° |
| 2026-04-28 07:59 | -25.88902 | 152.08433 | 21475 ft | 362 kts | 129° |
| 2026-04-28 08:00 | -25.90463 | 152.10624 | 21022 ft | 361 kts | 129° |
| 2026-04-28 08:00 | -25.92014 | 152.12806 | 20570 ft | 360 kts | 129° |
| 2026-04-28 08:00 | -25.93566 | 152.14991 | 20108 ft | 359 kts | 129° |
| 2026-04-28 08:00 | -25.95111 | 152.17167 | 19649 ft | 359 kts | 129° |
| 2026-04-28 08:01 | -25.96657 | 152.19342 | 19179 ft | 358 kts | 129° |
| 2026-04-28 08:01 | -25.98198 | 152.21508 | 18721 ft | 357 kts | 129° |
| 2026-04-28 08:01 | -25.99736 | 152.23669 | 18230 ft | 356 kts | 129° |
| 2026-04-28 08:01 | -26.01267 | 152.25817 | 17751 ft | 353 kts | 129° |
| 2026-04-28 08:02 | -26.02785 | 152.27953 | 17295 ft | 350 kts | 128° |
| 2026-04-28 08:02 | -26.04288 | 152.30070 | 16822 ft | 348 kts | 128° |
| 2026-04-28 08:02 | -26.05782 | 152.32179 | 16377 ft | 345 kts | 128° |
| 2026-04-28 08:02 | -26.07260 | 152.34269 | 15924 ft | 343 kts | 128° |
| 2026-04-28 08:03 | -26.08730 | 152.36347 | 15469 ft | 341 kts | 128° |
| 2026-04-28 08:03 | -26.10190 | 152.38410 | 15013 ft | 339 kts | 128° |
| 2026-04-28 08:03 | -26.11642 | 152.40467 | 14568 ft | 337 kts | 128° |
| 2026-04-28 08:03 | -26.13087 | 152.42509 | 14124 ft | 335 kts | 128° |
| 2026-04-28 08:04 | -26.14500 | 152.44513 | 13645 ft | 333 kts | 127° |
| 2026-04-28 08:04 | -26.15922 | 152.46532 | 13202 ft | 330 kts | 128° |
| 2026-04-28 08:04 | -26.17335 | 152.48532 | 12764 ft | 327 kts | 127° |
| 2026-04-28 08:04 | -26.18661 | 152.50413 | 12355 ft | 324 kts | 127° |
| 2026-04-28 08:05 | -26.20051 | 152.52380 | 11918 ft | 322 kts | 128° |
| 2026-04-28 08:05 | -26.21433 | 152.54329 | 11502 ft | 319 kts | 128° |
| 2026-04-28 08:05 | -26.22802 | 152.56266 | 11079 ft | 317 kts | 127° |
| 2026-04-28 08:05 | -26.24162 | 152.58194 | 10651 ft | 316 kts | 127° |
| 2026-04-28 08:06 | -26.25508 | 152.60105 | 10332 ft | 311 kts | 127° |
| 2026-04-28 08:06 | -26.26819 | 152.61965 | 10213 ft | 299 kts | 127° |
| 2026-04-28 08:06 | -26.28080 | 152.63758 | 10083 ft | 289 kts | 128° |
| 2026-04-28 08:06 | -26.29298 | 152.65509 | 9810 ft | 282 kts | 126° |
| 2026-04-28 08:07 | -26.30424 | 152.67271 | 9216 ft | 278 kts | 124° |
| 2026-04-28 08:07 | -26.31498 | 152.69052 | 8612 ft | 274 kts | 123° |
| 2026-04-28 08:07 | -26.32538 | 152.70817 | 8025 ft | 271 kts | 123° |
| 2026-04-28 08:07 | -26.33563 | 152.72562 | 7464 ft | 267 kts | 123° |
| 2026-04-28 08:08 | -26.34574 | 152.74272 | 6957 ft | 261 kts | 123° |
| 2026-04-28 08:08 | -26.35567 | 152.75942 | 6508 ft | 256 kts | 123° |
| 2026-04-28 08:08 | -26.36561 | 152.77604 | 6060 ft | 260 kts | 124° |
| 2026-04-28 08:08 | -26.37564 | 152.79275 | 5725 ft | 257 kts | 124° |
| 2026-04-28 08:09 | -26.37887 | 152.79811 | 5569 ft | 259 kts | 124° |
| 2026-04-28 08:10 | -26.37941 | 152.79901 | 5548 ft | 259 kts | 124° |
| 2026-04-28 08:11 | -26.38505 | 152.81214 | 5861 ft | 235 kts | 116° |
| 2026-04-28 08:11 | -26.39271 | 152.82705 | 5231 ft | 262 kts | 123° |
| 2026-04-28 08:11 | -26.39352 | 152.82841 | 5183 ft | 261 kts | 124° |
| 2026-04-28 08:12 | -26.39571 | 152.83208 | 5092 ft | 259 kts | 124° |
| 2026-04-28 08:12 | -26.40330 | 152.84619 | 5178 ft | 260 kts | 122° |
| 2026-04-28 08:12 | -26.41002 | 152.85755 | 4877 ft | 267 kts | 125° |
| 2026-04-28 08:12 | -26.41130 | 152.85960 | 4840 ft | 266 kts | 125° |
| 2026-04-28 08:13 | -26.41313 | 152.86273 | 4793 ft | 262 kts | 118° |
| 2026-04-28 08:13 | -26.42130 | 152.88146 | 4494 ft | 256 kts | 122° |
| 2026-04-28 08:13 | -26.42525 | 152.88882 | 4488 ft | 249 kts | 121° |
| 2026-04-28 08:13 | -26.43373 | 152.90574 | 4257 ft | 279 kts | 119° |
| 2026-04-28 08:14 | -26.44259 | 152.92485 | 3874 ft | 272 kts | 114° |
| 2026-04-28 08:14 | -26.44874 | 152.94419 | 3537 ft | 257 kts | 108° |
| 2026-04-28 08:14 | -26.45537 | 152.96188 | 3191 ft | 238 kts | 125° |
| 2026-04-28 08:14 | -26.46620 | 152.97429 | 2913 ft | 213 kts | 142° |
| 2026-04-28 08:15 | -26.47758 | 152.98397 | 2639 ft | 198 kts | 142° |
| 2026-04-28 08:15 | -26.48817 | 152.99298 | 2385 ft | 185 kts | 142° |
| 2026-04-28 08:15 | -26.49793 | 153.00131 | 2158 ft | 168 kts | 142° |
| 2026-04-28 08:15 | -26.50658 | 153.00866 | 1935 ft | 150 kts | 143° |
| 2026-04-28 08:16 | -26.51441 | 153.01537 | 1796 ft | 138 kts | 142° |
| 2026-04-28 08:16 | -26.52185 | 153.02178 | 1585 ft | 133 kts | 143° |
| 2026-04-28 08:16 | -26.52819 | 153.02722 | 1427 ft | 131 kts | 142° |
| 2026-04-28 08:16 | -26.53546 | 153.03340 | 1251 ft | 131 kts | 144° |
| 2026-04-28 08:17 | -26.54269 | 153.03959 | 1037 ft | 133 kts | 144° |
| 2026-04-28 08:17 | -26.54994 | 153.04586 | 850 ft | 131 kts | 145° |
| 2026-04-28 08:17 | -26.55723 | 153.05217 | 675 ft | 134 kts | 144° |
| 2026-04-28 08:17 | -26.56452 | 153.05851 | 533 ft | 131 kts | 145° |
| 2026-04-28 08:18 | -26.57178 | 153.06473 | 360 ft | 132 kts | 144° |
| 2026-04-28 08:18 | -26.57896 | 153.07096 | 203 ft | 130 kts | 146° |
| 2026-04-28 08:18 | -26.58608 | 153.07711 | 32 ft | 124 kts | 146° |
| 2026-04-28 08:18 | -26.58965 | 153.08006 | 25 ft | 101 kts | 143° |
| 2026-04-28 08:19 | -26.59403 | 153.08379 | 23 ft | 63 kts | 140° |
| 2026-04-28 08:19 | -26.59700 | 153.08634 | 25 ft | 49 kts | 143° |
| 2026-04-28 08:19 | -26.59954 | 153.08850 | 24 ft | 41 kts | 140° |
| 2026-04-28 08:20 | -26.60043 | 153.08925 | 26 ft | 15 kts | 160° |
| 2026-04-28 08:20 | -26.60118 | 153.08867 | 25 ft | 14 kts | 234° |
| 2026-04-28 08:20 | -26.60197 | 153.08830 | 24 ft | 14 kts | 155° |
| 2026-04-28 08:20 | -26.60284 | 153.08904 | 24 ft | 17 kts | 141° |
| 2026-04-28 08:21 | -26.60348 | 153.08915 | 26 ft | 9 kts | 222° |
| 2026-04-28 08:21 | -26.60409 | 153.08931 | 24 ft | 11 kts | 144° |
| 2026-04-28 08:21 | -26.60448 | 153.08951 | 24 ft | 5 kts | 203° |
| 2026-04-28 08:21 | -26.60465 | 153.08934 | 26 ft | 5 kts | 218° |
| 2026-04-28 08:22 | -26.60479 | 153.08915 | 26 ft | 1 kts | 233° |
| 2026-04-28 08:22 | -26.60480 | 153.08914 | 25 ft | 0 kts | 233° |